sensor_id;sensor_type;location;lat;lon;timestamp;temperature;humidity
10175;DHT22;18221;38.704;0.152;2023-04-25T08:12:02;22.50;99.90
10175;DHT22;18221;38.704;0.152;2023-04-25T08:14:31;22.20;99.90
10175;DHT22;18221;38.704;0.152;2023-04-25T08:17:02;22.30;99.90
10175;DHT22;18221;38.704;0.152;2023-04-25T08:19:31;22.10;99.90
10175;DHT22;18221;38.704;0.152;2023-04-25T08:22:00;22.00;99.90
10175;DHT22;18221;38.704;0.152;2023-04-25T08:24:28;22.00;99.90
10175;DHT22;18221;38.704;0.152;2023-04-25T08:26:57;22.00;99.90
10175;DHT22;18221;38.704;0.152;2023-04-25T08:29:39;21.90;99.90
10175;DHT22;18221;38.704;0.152;2023-04-25T08:32:08;21.80;99.90
10175;DHT22;18221;38.704;0.152;2023-04-25T08:34:36;21.90;99.90
10175;DHT22;18221;38.704;0.152;2023-04-25T08:37:08;21.90;99.90
10175;DHT22;18221;38.704;0.152;2023-04-25T08:39:37;21.90;99.90
10175;DHT22;18221;38.704;0.152;2023-04-25T08:42:06;22.00;99.90
10175;DHT22;18221;38.704;0.152;2023-04-25T08:44:35;22.00;99.90
10175;DHT22;18221;38.704;0.152;2023-04-25T08:47:06;22.10;99.90
10175;DHT22;18221;38.704;0.152;2023-04-25T08:49:34;22.10;99.90
10175;DHT22;18221;38.704;0.152;2023-04-25T08:52:04;22.20;99.90
10175;DHT22;18221;38.704;0.152;2023-04-25T08:54:33;22.20;99.90
10175;DHT22;18221;38.704;0.152;2023-04-25T08:57:02;22.20;99.90
10175;DHT22;18221;38.704;0.152;2023-04-25T08:59:31;22.10;99.90
10175;DHT22;18221;38.704;0.152;2023-04-25T09:02:00;22.10;99.90
10175;DHT22;18221;38.704;0.152;2023-04-25T09:04:32;22.10;99.90
10175;DHT22;18221;38.704;0.152;2023-04-25T09:07:01;22.00;99.90
10175;DHT22;18221;38.704;0.152;2023-04-25T09:09:35;21.80;99.90
10175;DHT22;18221;38.704;0.152;2023-04-25T09:12:04;21.50;99.90
10175;DHT22;18221;38.704;0.152;2023-04-25T09:14:33;21.50;99.90
10175;DHT22;18221;38.704;0.152;2023-04-25T09:17:03;21.40;99.90
10175;DHT22;18221;38.704;0.152;2023-04-25T09:19:36;21.30;99.90
10175;DHT22;18221;38.704;0.152;2023-04-25T09:22:07;21.20;99.90
10175;DHT22;18221;38.704;0.152;2023-04-25T09:24:37;21.10;99.90
10175;DHT22;18221;38.704;0.152;2023-04-25T09:27:10;21.00;99.90
10175;DHT22;18221;38.704;0.152;2023-04-25T09:29:46;21.30;99.90
10175;DHT22;18221;38.704;0.152;2023-04-25T09:32:20;21.00;99.90
10175;DHT22;18221;38.704;0.152;2023-04-25T09:34:54;21.00;99.90
10175;DHT22;18221;38.704;0.152;2023-04-25T09:37:26;21.00;99.90
10175;DHT22;18221;38.704;0.152;2023-04-25T09:39:56;21.10;99.90
10175;DHT22;18221;38.704;0.152;2023-04-25T09:42:29;21.10;99.90
10175;DHT22;18221;38.704;0.152;2023-04-25T09:45:00;21.00;99.90
10175;DHT22;18221;38.704;0.152;2023-04-25T09:47:30;20.80;99.90
10175;DHT22;18221;38.704;0.152;2023-04-25T09:50:00;20.90;99.90
10175;DHT22;18221;38.704;0.152;2023-04-25T09:52:28;21.20;99.90
10175;DHT22;18221;38.704;0.152;2023-04-25T09:54:57;21.00;99.90
10175;DHT22;18221;38.704;0.152;2023-04-25T09:57:25;21.10;99.90
10175;DHT22;18221;38.704;0.152;2023-04-25T09:59:54;21.20;99.90
10175;DHT22;18221;38.704;0.152;2023-04-25T10:02:24;21.20;99.90
10175;DHT22;18221;38.704;0.152;2023-04-25T10:04:55;21.20;99.90
10175;DHT22;18221;38.704;0.152;2023-04-25T10:07:29;21.10;99.90
10175;DHT22;18221;38.704;0.152;2023-04-25T10:10:00;21.30;99.90
10175;DHT22;18221;38.704;0.152;2023-04-25T10:12:30;21.30;99.90
10175;DHT22;18221;38.704;0.152;2023-04-25T10:15:00;21.20;99.90
10175;DHT22;18221;38.704;0.152;2023-04-25T10:17:31;21.30;99.90
10175;DHT22;18221;38.704;0.152;2023-04-25T10:20:02;21.30;99.90
10175;DHT22;18221;38.704;0.152;2023-04-25T10:22:36;21.30;99.90
10175;DHT22;18221;38.704;0.152;2023-04-25T10:25:09;21.30;99.90
10175;DHT22;18221;38.704;0.152;2023-04-25T10:27:39;21.30;99.90
10175;DHT22;18221;38.704;0.152;2023-04-25T10:30:10;21.30;99.90
10175;DHT22;18221;38.704;0.152;2023-04-25T10:32:42;21.40;99.90
10175;DHT22;18221;38.704;0.152;2023-04-25T10:35:15;21.50;99.90
10175;DHT22;18221;38.704;0.152;2023-04-25T10:38:00;21.50;99.90
10175;DHT22;18221;38.704;0.152;2023-04-25T10:40:31;21.50;99.90
10175;DHT22;18221;38.704;0.152;2023-04-25T10:43:35;21.50;99.90
10175;DHT22;18221;38.704;0.152;2023-04-25T10:46:14;21.50;99.90
10175;DHT22;18221;38.704;0.152;2023-04-25T10:48:57;21.40;99.90
10175;DHT22;18221;38.704;0.152;2023-04-25T10:51:27;21.30;99.90
10175;DHT22;18221;38.704;0.152;2023-04-25T10:54:00;21.30;99.90
10175;DHT22;18221;38.704;0.152;2023-04-25T10:56:30;21.40;99.90
10175;DHT22;18221;38.704;0.152;2023-04-25T10:59:07;21.50;99.90
10175;DHT22;18221;38.704;0.152;2023-04-25T11:01:38;21.60;99.90
10175;DHT22;18221;38.704;0.152;2023-04-25T11:04:20;21.60;99.90
10175;DHT22;18221;38.704;0.152;2023-04-25T11:07:09;21.50;99.90
10175;DHT22;18221;38.704;0.152;2023-04-25T11:09:50;21.60;99.90
10175;DHT22;18221;38.704;0.152;2023-04-25T11:12:18;21.70;99.90
10175;DHT22;18221;38.704;0.152;2023-04-25T11:14:47;21.70;99.90
10175;DHT22;18221;38.704;0.152;2023-04-25T11:17:15;21.70;99.90
10175;DHT22;18221;38.704;0.152;2023-04-25T11:19:43;21.70;99.90
10175;DHT22;18221;38.704;0.152;2023-04-25T11:22:16;21.80;99.90
10175;DHT22;18221;38.704;0.152;2023-04-25T11:24:46;21.80;99.90
10175;DHT22;18221;38.704;0.152;2023-04-25T11:27:16;21.80;99.90
10175;DHT22;18221;38.704;0.152;2023-04-25T11:29:45;21.90;99.90
10175;DHT22;18221;38.704;0.152;2023-04-25T11:32:17;22.00;99.90
10175;DHT22;18221;38.704;0.152;2023-04-25T11:34:47;21.90;99.90
10175;DHT22;18221;38.704;0.152;2023-04-25T11:37:16;22.00;99.90
10175;DHT22;18221;38.704;0.152;2023-04-25T11:39:45;22.00;99.90
10175;DHT22;18221;38.704;0.152;2023-04-25T11:42:16;22.00;99.90
10175;DHT22;18221;38.704;0.152;2023-04-25T11:44:46;22.00;99.90
10175;DHT22;18221;38.704;0.152;2023-04-25T11:47:14;22.00;99.90
10175;DHT22;18221;38.704;0.152;2023-04-25T11:49:43;22.00;99.90
10175;DHT22;18221;38.704;0.152;2023-04-25T11:52:46;22.00;99.90
10175;DHT22;18221;38.704;0.152;2023-04-25T11:55:18;22.10;99.90
10175;DHT22;18221;38.704;0.152;2023-04-25T11:57:50;22.10;99.90
10175;DHT22;18221;38.704;0.152;2023-04-25T12:00:20;22.10;99.90
10175;DHT22;18221;38.704;0.152;2023-04-25T12:02:52;22.20;99.90
10175;DHT22;18221;38.704;0.152;2023-04-25T12:05:25;22.20;99.90
10175;DHT22;18221;38.704;0.152;2023-04-25T12:07:55;22.20;99.90
10175;DHT22;18221;38.704;0.152;2023-04-25T12:10:24;22.20;99.90
10175;DHT22;18221;38.704;0.152;2023-04-25T12:12:54;22.20;99.90
10175;DHT22;18221;38.704;0.152;2023-04-25T12:15:24;22.30;99.90
10175;DHT22;18221;38.704;0.152;2023-04-25T12:17:54;22.30;99.90
10175;DHT22;18221;38.704;0.152;2023-04-25T12:20:25;22.20;99.90
10175;DHT22;18221;38.704;0.152;2023-04-25T12:22:53;22.10;99.90
10175;DHT22;18221;38.704;0.152;2023-04-25T12:25:35;22.10;99.90
10175;DHT22;18221;38.704;0.152;2023-04-25T12:28:14;21.90;99.90
10175;DHT22;18221;38.704;0.152;2023-04-25T12:31:05;22.00;99.90
10175;DHT22;18221;38.704;0.152;2023-04-25T12:33:36;22.30;99.90
10175;DHT22;18221;38.704;0.152;2023-04-25T12:36:06;22.40;99.90
10175;DHT22;18221;38.704;0.152;2023-04-25T12:38:39;22.50;99.90
10175;DHT22;18221;38.704;0.152;2023-04-25T12:41:09;22.50;99.90
10175;DHT22;18221;38.704;0.152;2023-04-25T12:43:39;22.50;99.90
10175;DHT22;18221;38.704;0.152;2023-04-25T12:46:07;22.50;99.90
10175;DHT22;18221;38.704;0.152;2023-04-25T12:48:36;22.60;99.90
10175;DHT22;18221;38.704;0.152;2023-04-25T12:51:05;22.70;99.90
10175;DHT22;18221;38.704;0.152;2023-04-25T12:53:35;22.70;99.90
10175;DHT22;18221;38.704;0.152;2023-04-25T12:56:06;22.60;99.90
10175;DHT22;18221;38.704;0.152;2023-04-25T12:58:34;22.50;99.90
10175;DHT22;18221;38.704;0.152;2023-04-25T13:01:04;22.60;99.90
10175;DHT22;18221;38.704;0.152;2023-04-25T13:03:33;22.70;99.90
10175;DHT22;18221;38.704;0.152;2023-04-25T13:06:01;22.60;99.90
10175;DHT22;18221;38.704;0.152;2023-04-25T13:08:30;22.70;99.90
10175;DHT22;18221;38.704;0.152;2023-04-25T13:10:58;22.60;99.90
10175;DHT22;18221;38.704;0.152;2023-04-25T13:13:29;22.70;99.90
10175;DHT22;18221;38.704;0.152;2023-04-25T13:15:57;22.60;99.90
10175;DHT22;18221;38.704;0.152;2023-04-25T13:29:56;22.70;99.90
10175;DHT22;18221;38.704;0.152;2023-04-25T13:32:24;23.10;99.90
10175;DHT22;18221;38.704;0.152;2023-04-25T13:34:53;23.10;99.90
10175;DHT22;18221;38.704;0.152;2023-04-25T13:37:38;23.00;99.90
10175;DHT22;18221;38.704;0.152;2023-04-25T13:40:09;22.90;99.90
10175;DHT22;18221;38.704;0.152;2023-04-25T13:42:38;23.00;99.90
10175;DHT22;18221;38.704;0.152;2023-04-25T13:45:10;23.20;99.90
10175;DHT22;18221;38.704;0.152;2023-04-25T13:47:39;23.20;99.90
10175;DHT22;18221;38.704;0.152;2023-04-25T13:50:08;23.10;99.90
10175;DHT22;18221;38.704;0.152;2023-04-25T13:52:37;23.00;99.90
10175;DHT22;18221;38.704;0.152;2023-04-25T14:02:00;23.00;99.90
10175;DHT22;18221;38.704;0.152;2023-04-25T14:04:29;23.00;99.90
10175;DHT22;18221;38.704;0.152;2023-04-25T14:06:57;23.10;99.90
10175;DHT22;18221;38.704;0.152;2023-04-25T14:09:26;23.30;99.90
10175;DHT22;18221;38.704;0.152;2023-04-25T14:11:55;23.30;99.90
10175;DHT22;18221;38.704;0.152;2023-04-25T14:14:24;23.10;99.90
10175;DHT22;18221;38.704;0.152;2023-04-25T14:16:53;23.10;99.90
10175;DHT22;18221;38.704;0.152;2023-04-25T14:19:24;23.10;99.90
10175;DHT22;18221;38.704;0.152;2023-04-25T14:21:54;23.00;99.90
10175;DHT22;18221;38.704;0.152;2023-04-25T14:24:23;22.80;99.90
10175;DHT22;18221;38.704;0.152;2023-04-25T14:26:52;23.00;99.90
10175;DHT22;18221;38.704;0.152;2023-04-25T14:29:21;23.10;99.90
10175;DHT22;18221;38.704;0.152;2023-04-25T14:31:50;23.10;99.90
10175;DHT22;18221;38.704;0.152;2023-04-25T14:34:19;23.20;99.90
10175;DHT22;18221;38.704;0.152;2023-04-25T14:36:50;23.30;99.90
10175;DHT22;18221;38.704;0.152;2023-04-25T14:39:20;23.20;99.90
10175;DHT22;18221;38.704;0.152;2023-04-25T14:41:48;23.20;99.90
10175;DHT22;18221;38.704;0.152;2023-04-25T14:44:19;23.20;99.90
10175;DHT22;18221;38.704;0.152;2023-04-25T14:46:48;23.30;99.90
10175;DHT22;18221;38.704;0.152;2023-04-25T14:53:31;23.50;99.90
10175;DHT22;18221;38.704;0.152;2023-04-25T14:56:02;23.60;99.90
10175;DHT22;18221;38.704;0.152;2023-04-25T14:58:31;23.80;99.90
10175;DHT22;18221;38.704;0.152;2023-04-25T15:01:00;23.80;99.90
10175;DHT22;18221;38.704;0.152;2023-04-25T15:10:52;23.80;99.90
10175;DHT22;18221;38.704;0.152;2023-04-25T15:13:21;23.90;99.90
10175;DHT22;18221;38.704;0.152;2023-04-25T15:15:49;24.00;99.90
10175;DHT22;18221;38.704;0.152;2023-04-25T15:18:21;23.90;99.90
10175;DHT22;18221;38.704;0.152;2023-04-25T15:20:51;23.60;99.90
10175;DHT22;18221;38.704;0.152;2023-04-25T15:23:20;23.40;99.90
10175;DHT22;18221;38.704;0.152;2023-04-25T15:25:51;23.40;99.90
10175;DHT22;18221;38.704;0.152;2023-04-25T15:28:20;23.40;99.90
10175;DHT22;18221;38.704;0.152;2023-04-25T15:30:48;23.50;99.90
10175;DHT22;18221;38.704;0.152;2023-04-25T15:40:14;23.40;99.90
10175;DHT22;18221;38.704;0.152;2023-04-25T15:42:52;23.30;99.90
10175;DHT22;18221;38.704;0.152;2023-04-25T15:45:23;23.20;99.90
10175;DHT22;18221;38.704;0.152;2023-04-25T15:48:01;23.20;99.90
10175;DHT22;18221;38.704;0.152;2023-04-25T15:50:33;23.00;99.90
10175;DHT22;18221;38.704;0.152;2023-04-25T15:53:03;23.10;99.90
10175;DHT22;18221;38.704;0.152;2023-04-25T15:55:31;23.20;99.90
10175;DHT22;18221;38.704;0.152;2023-04-25T15:58:01;23.30;99.90
10175;DHT22;18221;38.704;0.152;2023-04-25T16:00:30;23.10;99.90
10175;DHT22;18221;38.704;0.152;2023-04-25T16:03:01;22.90;99.90
10175;DHT22;18221;38.704;0.152;2023-04-25T16:05:30;22.80;99.90
10175;DHT22;18221;38.704;0.152;2023-04-25T16:08:01;22.90;99.90
10175;DHT22;18221;38.704;0.152;2023-04-25T16:10:30;23.10;99.90
10175;DHT22;18221;38.704;0.152;2023-04-25T16:13:01;23.20;99.90
10175;DHT22;18221;38.704;0.152;2023-04-25T16:15:30;23.30;99.90
10175;DHT22;18221;38.704;0.152;2023-04-25T16:17:58;23.30;99.90
10175;DHT22;18221;38.704;0.152;2023-04-25T16:20:27;23.50;99.90
10175;DHT22;18221;38.704;0.152;2023-04-25T16:22:55;23.60;99.90
10175;DHT22;18221;38.704;0.152;2023-04-25T16:25:24;23.80;99.90
10175;DHT22;18221;38.704;0.152;2023-04-25T16:27:53;23.80;99.90
10175;DHT22;18221;38.704;0.152;2023-04-25T16:30:23;23.80;99.90
10175;DHT22;18221;38.704;0.152;2023-04-25T16:32:51;23.60;99.90
10175;DHT22;18221;38.704;0.152;2023-04-25T16:35:22;23.40;99.90
10175;DHT22;18221;38.704;0.152;2023-04-25T16:37:50;23.20;99.90
10175;DHT22;18221;38.704;0.152;2023-04-25T16:40:19;22.90;99.90
10175;DHT22;18221;38.704;0.152;2023-04-25T16:42:47;22.60;99.90
10175;DHT22;18221;38.704;0.152;2023-04-25T16:45:15;22.50;99.90
10175;DHT22;18221;38.704;0.152;2023-04-25T16:47:46;22.40;99.90
10175;DHT22;18221;38.704;0.152;2023-04-25T16:50:15;22.40;99.90
10175;DHT22;18221;38.704;0.152;2023-04-25T16:52:47;22.40;99.90
10175;DHT22;18221;38.704;0.152;2023-04-25T16:55:18;22.50;99.90
10175;DHT22;18221;38.704;0.152;2023-04-25T16:57:46;22.60;99.90
10175;DHT22;18221;38.704;0.152;2023-04-25T17:00:16;22.70;99.90
10175;DHT22;18221;38.704;0.152;2023-04-25T17:02:49;22.70;99.90
10175;DHT22;18221;38.704;0.152;2023-04-25T17:05:24;22.70;99.90
10175;DHT22;18221;38.704;0.152;2023-04-25T17:07:52;22.70;99.90
10175;DHT22;18221;38.704;0.152;2023-04-25T17:10:22;22.70;99.90
10175;DHT22;18221;38.704;0.152;2023-04-25T17:12:51;22.70;99.90
10175;DHT22;18221;38.704;0.152;2023-04-25T17:15:22;22.60;99.90
10175;DHT22;18221;38.704;0.152;2023-04-25T17:17:53;22.50;99.90
10175;DHT22;18221;38.704;0.152;2023-04-25T17:20:23;23.80;99.90
10175;DHT22;18221;38.704;0.152;2023-04-25T17:22:54;24.30;99.90
10175;DHT22;18221;38.704;0.152;2023-04-25T17:25:23;22.30;99.90
10175;DHT22;18221;38.704;0.152;2023-04-25T17:27:53;22.20;99.90
10175;DHT22;18221;38.704;0.152;2023-04-25T17:30:21;22.10;99.90
10175;DHT22;18221;38.704;0.152;2023-04-25T17:32:52;22.00;99.90
10175;DHT22;18221;38.704;0.152;2023-04-25T17:35:29;22.00;99.90
10175;DHT22;18221;38.704;0.152;2023-04-25T17:37:59;21.90;99.90
10175;DHT22;18221;38.704;0.152;2023-04-25T17:40:27;21.90;99.90
10175;DHT22;18221;38.704;0.152;2023-04-25T17:42:56;21.90;99.90
10175;DHT22;18221;38.704;0.152;2023-04-25T17:45:25;21.90;99.90
10175;DHT22;18221;38.704;0.152;2023-04-25T17:47:56;21.80;99.90
10175;DHT22;18221;38.704;0.152;2023-04-25T17:50:25;21.80;99.90
10175;DHT22;18221;38.704;0.152;2023-04-25T17:52:53;21.80;99.90
10175;DHT22;18221;38.704;0.152;2023-04-25T17:55:22;21.80;99.90
10175;DHT22;18221;38.704;0.152;2023-04-25T17:57:50;21.80;99.90
10175;DHT22;18221;38.704;0.152;2023-04-25T18:00:18;21.80;99.90
10175;DHT22;18221;38.704;0.152;2023-04-25T18:02:47;21.80;99.90
10175;DHT22;18221;38.704;0.152;2023-04-25T18:05:18;21.80;99.90
10175;DHT22;18221;38.704;0.152;2023-04-25T18:07:47;21.70;99.90
10175;DHT22;18221;38.704;0.152;2023-04-25T18:10:15;21.70;99.90
10175;DHT22;18221;38.704;0.152;2023-04-25T18:12:43;21.60;99.90
10175;DHT22;18221;38.704;0.152;2023-04-25T18:15:11;21.50;99.90
10175;DHT22;18221;38.704;0.152;2023-04-25T18:17:39;21.50;99.90
10175;DHT22;18221;38.704;0.152;2023-04-25T18:20:09;21.50;99.90
10175;DHT22;18221;38.704;0.152;2023-04-25T18:22:43;21.50;99.90
10175;DHT22;18221;38.704;0.152;2023-04-25T18:25:12;21.40;99.90
10175;DHT22;18221;38.704;0.152;2023-04-25T18:27:40;21.40;99.90
10175;DHT22;18221;38.704;0.152;2023-04-25T18:30:10;21.30;99.90
10175;DHT22;18221;38.704;0.152;2023-04-25T18:32:39;21.20;99.90
10175;DHT22;18221;38.704;0.152;2023-04-25T18:35:08;21.10;99.90
10175;DHT22;18221;38.704;0.152;2023-04-25T18:38:01;21.00;99.90
10175;DHT22;18221;38.704;0.152;2023-04-25T18:40:29;20.90;99.90
10175;DHT22;18221;38.704;0.152;2023-04-25T18:42:58;20.70;99.90
10175;DHT22;18221;38.704;0.152;2023-04-25T18:45:26;20.70;99.90
10175;DHT22;18221;38.704;0.152;2023-04-25T18:47:54;20.60;99.90
10175;DHT22;18221;38.704;0.152;2023-04-25T18:50:23;20.60;99.90
10175;DHT22;18221;38.704;0.152;2023-04-25T18:52:51;20.50;99.90
10175;DHT22;18221;38.704;0.152;2023-04-25T18:55:21;20.40;99.90
10175;DHT22;18221;38.704;0.152;2023-04-25T18:57:50;20.40;99.90
10175;DHT22;18221;38.704;0.152;2023-04-25T19:00:19;20.40;99.90
10175;DHT22;18221;38.704;0.152;2023-04-25T19:02:48;20.40;99.90
10175;DHT22;18221;38.704;0.152;2023-04-25T19:05:17;20.40;99.90
10175;DHT22;18221;38.704;0.152;2023-04-25T19:07:45;20.50;99.90
10175;DHT22;18221;38.704;0.152;2023-04-25T19:10:13;20.50;99.90
10175;DHT22;18221;38.704;0.152;2023-04-25T19:12:43;20.60;99.90
10175;DHT22;18221;38.704;0.152;2023-04-25T19:15:11;20.70;99.90
10175;DHT22;18221;38.704;0.152;2023-04-25T19:17:40;20.80;99.90
10175;DHT22;18221;38.704;0.152;2023-04-25T19:20:09;20.80;99.90
10175;DHT22;18221;38.704;0.152;2023-04-25T19:22:39;20.90;99.90
10175;DHT22;18221;38.704;0.152;2023-04-25T19:25:07;20.90;99.90
10175;DHT22;18221;38.704;0.152;2023-04-25T19:27:36;20.90;99.90
10175;DHT22;18221;38.704;0.152;2023-04-25T19:30:08;20.90;99.90
10175;DHT22;18221;38.704;0.152;2023-04-25T19:32:37;20.80;99.90
10175;DHT22;18221;38.704;0.152;2023-04-25T19:35:07;20.70;99.90
10175;DHT22;18221;38.704;0.152;2023-04-25T19:37:36;20.70;99.90
10175;DHT22;18221;38.704;0.152;2023-04-25T19:40:12;20.70;99.90
10175;DHT22;18221;38.704;0.152;2023-04-25T19:42:41;20.70;99.90
10175;DHT22;18221;38.704;0.152;2023-04-25T19:45:12;20.60;99.90
10175;DHT22;18221;38.704;0.152;2023-04-25T19:47:40;20.60;99.90
10175;DHT22;18221;38.704;0.152;2023-04-25T19:50:10;20.60;99.90
10175;DHT22;18221;38.704;0.152;2023-04-25T19:52:39;20.60;99.90
10175;DHT22;18221;38.704;0.152;2023-04-25T19:55:08;20.60;99.90
10175;DHT22;18221;38.704;0.152;2023-04-25T19:57:37;20.60;99.90
10175;DHT22;18221;38.704;0.152;2023-04-25T20:00:08;20.60;99.90
10175;DHT22;18221;38.704;0.152;2023-04-25T20:02:41;20.60;99.90
10175;DHT22;18221;38.704;0.152;2023-04-25T20:05:12;20.50;99.90
10175;DHT22;18221;38.704;0.152;2023-04-25T20:07:42;20.40;99.90
10175;DHT22;18221;38.704;0.152;2023-04-25T20:10:11;20.40;99.90
10175;DHT22;18221;38.704;0.152;2023-04-25T20:12:41;20.40;99.90
10175;DHT22;18221;38.704;0.152;2023-04-25T20:15:11;20.40;99.90
10175;DHT22;18221;38.704;0.152;2023-04-25T20:17:41;20.30;99.90
10175;DHT22;18221;38.704;0.152;2023-04-25T20:20:24;20.30;99.90
10175;DHT22;18221;38.704;0.152;2023-04-25T20:22:53;20.20;99.90
10175;DHT22;18221;38.704;0.152;2023-04-25T20:25:22;20.20;99.90
10175;DHT22;18221;38.704;0.152;2023-04-25T20:27:50;20.20;99.90
10175;DHT22;18221;38.704;0.152;2023-04-25T20:30:18;20.20;99.90
10175;DHT22;18221;38.704;0.152;2023-04-25T20:32:48;20.10;99.90
10175;DHT22;18221;38.704;0.152;2023-04-25T20:35:17;20.10;99.90
10175;DHT22;18221;38.704;0.152;2023-04-25T20:37:47;20.00;99.90
10175;DHT22;18221;38.704;0.152;2023-04-25T20:40:19;20.10;99.90
10175;DHT22;18221;38.704;0.152;2023-04-25T20:42:47;20.10;99.90
10175;DHT22;18221;38.704;0.152;2023-04-25T20:45:17;20.00;99.90
10175;DHT22;18221;38.704;0.152;2023-04-25T20:47:48;20.10;99.90
10175;DHT22;18221;38.704;0.152;2023-04-25T20:50:17;20.10;99.90
10175;DHT22;18221;38.704;0.152;2023-04-25T20:52:45;20.20;99.90
10175;DHT22;18221;38.704;0.152;2023-04-25T20:55:14;20.10;99.90
10175;DHT22;18221;38.704;0.152;2023-04-25T20:57:42;20.20;99.90
10175;DHT22;18221;38.704;0.152;2023-04-25T21:00:11;20.20;99.90
10175;DHT22;18221;38.704;0.152;2023-04-25T21:03:05;20.20;99.90
10175;DHT22;18221;38.704;0.152;2023-04-25T21:05:34;20.30;99.90
10175;DHT22;18221;38.704;0.152;2023-04-25T21:08:02;20.30;99.90
10175;DHT22;18221;38.704;0.152;2023-04-25T21:10:30;20.40;99.90
10175;DHT22;18221;38.704;0.152;2023-04-25T21:12:59;20.40;99.90
10175;DHT22;18221;38.704;0.152;2023-04-25T21:15:27;20.50;99.90
10175;DHT22;18221;38.704;0.152;2023-04-25T21:17:56;20.50;99.90
10175;DHT22;18221;38.704;0.152;2023-04-25T21:20:39;20.50;99.90
10175;DHT22;18221;38.704;0.152;2023-04-25T21:23:07;20.50;99.90
10175;DHT22;18221;38.704;0.152;2023-04-25T21:25:36;20.50;99.90
10175;DHT22;18221;38.704;0.152;2023-04-25T21:28:04;20.60;99.90
10175;DHT22;18221;38.704;0.152;2023-04-25T21:30:33;20.50;99.90
10175;DHT22;18221;38.704;0.152;2023-04-25T21:33:02;20.50;99.90
10175;DHT22;18221;38.704;0.152;2023-04-25T21:35:30;20.50;99.90
10175;DHT22;18221;38.704;0.152;2023-04-25T21:38:01;20.50;99.90
10175;DHT22;18221;38.704;0.152;2023-04-25T21:40:30;20.50;99.90
10175;DHT22;18221;38.704;0.152;2023-04-25T21:42:58;20.50;99.90
10175;DHT22;18221;38.704;0.152;2023-04-25T21:45:28;20.50;99.90
10175;DHT22;18221;38.704;0.152;2023-04-25T21:47:56;20.40;99.90
10175;DHT22;18221;38.704;0.152;2023-04-25T21:50:25;20.40;99.90
10175;DHT22;18221;38.704;0.152;2023-04-25T21:52:56;20.40;99.90
10175;DHT22;18221;38.704;0.152;2023-04-25T21:55:26;20.50;99.90
10175;DHT22;18221;38.704;0.152;2023-04-25T21:57:55;20.60;99.90
10175;DHT22;18221;38.704;0.152;2023-04-25T22:00:29;20.70;99.90
10175;DHT22;18221;38.704;0.152;2023-04-25T22:02:58;20.80;99.90
10175;DHT22;18221;38.704;0.152;2023-04-25T22:05:26;20.90;99.90
10175;DHT22;18221;38.704;0.152;2023-04-25T22:07:55;20.90;99.90
10175;DHT22;18221;38.704;0.152;2023-04-25T22:10:24;20.90;99.90
10175;DHT22;18221;38.704;0.152;2023-04-25T22:12:55;21.00;99.90
10175;DHT22;18221;38.704;0.152;2023-04-25T22:15:28;21.00;99.90
10175;DHT22;18221;38.704;0.152;2023-04-25T22:17:56;21.00;99.90
10175;DHT22;18221;38.704;0.152;2023-04-25T22:20:25;21.10;99.90
10175;DHT22;18221;38.704;0.152;2023-04-25T22:22:54;21.10;99.90
10175;DHT22;18221;38.704;0.152;2023-04-25T22:25:23;21.20;99.90
10175;DHT22;18221;38.704;0.152;2023-04-25T22:28:07;21.20;99.90
10175;DHT22;18221;38.704;0.152;2023-04-25T22:30:36;21.20;99.90
10175;DHT22;18221;38.704;0.152;2023-04-25T22:33:04;21.10;99.90
10175;DHT22;18221;38.704;0.152;2023-04-25T22:35:33;21.10;99.90
10175;DHT22;18221;38.704;0.152;2023-04-25T22:38:02;21.10;99.90
10175;DHT22;18221;38.704;0.152;2023-04-25T22:40:30;21.00;99.90
10175;DHT22;18221;38.704;0.152;2023-04-25T22:42:59;21.10;99.90
10175;DHT22;18221;38.704;0.152;2023-04-25T22:45:29;21.00;99.90
10175;DHT22;18221;38.704;0.152;2023-04-25T22:47:57;21.10;99.90
10175;DHT22;18221;38.704;0.152;2023-04-25T22:50:26;21.10;99.90
10175;DHT22;18221;38.704;0.152;2023-04-25T22:52:54;21.10;99.90
10175;DHT22;18221;38.704;0.152;2023-04-25T22:55:29;21.00;99.90
10175;DHT22;18221;38.704;0.152;2023-04-25T22:57:57;21.00;99.90
10175;DHT22;18221;38.704;0.152;2023-04-25T23:00:29;21.00;99.90
10175;DHT22;18221;38.704;0.152;2023-04-25T23:02:59;21.10;99.90
10175;DHT22;18221;38.704;0.152;2023-04-25T23:05:29;21.10;99.90
10175;DHT22;18221;38.704;0.152;2023-04-25T23:07:57;21.00;99.90
10175;DHT22;18221;38.704;0.152;2023-04-25T23:10:27;21.10;99.90
10175;DHT22;18221;38.704;0.152;2023-04-25T23:12:56;21.10;99.90
10175;DHT22;18221;38.704;0.152;2023-04-25T23:15:26;21.10;99.90
10175;DHT22;18221;38.704;0.152;2023-04-25T23:17:56;21.10;99.90
10175;DHT22;18221;38.704;0.152;2023-04-25T23:20:25;21.10;99.90
10175;DHT22;18221;38.704;0.152;2023-04-25T23:22:53;21.00;99.90
10175;DHT22;18221;38.704;0.152;2023-04-25T23:25:22;21.10;99.90
10175;DHT22;18221;38.704;0.152;2023-04-25T23:27:51;21.10;99.90
10175;DHT22;18221;38.704;0.152;2023-04-25T23:30:19;21.10;99.90
10175;DHT22;18221;38.704;0.152;2023-04-25T23:32:52;21.10;99.90
10175;DHT22;18221;38.704;0.152;2023-04-25T23:35:20;21.10;99.90
10175;DHT22;18221;38.704;0.152;2023-04-25T23:37:49;21.10;99.90
10175;DHT22;18221;38.704;0.152;2023-04-25T23:40:18;21.20;99.90
10175;DHT22;18221;38.704;0.152;2023-04-25T23:42:46;21.20;99.90
10175;DHT22;18221;38.704;0.152;2023-04-25T23:45:19;21.20;99.90
10175;DHT22;18221;38.704;0.152;2023-04-25T23:47:49;21.20;99.90
